High Rock, North Carolina
Current Conditions -  °F | °C
As of 11:15 PM on Wednesday 28 Jan 2015 (Local Time) from KHBI Reporting Station
Clear Clear  
Wind Chill: 27°   Ceiling: Unl
Heat Index: 27°   Visibility: 10mi
Dew Point: 17°   Wind: 0mph
Humidity: 67%   Direction: NA
Pressure: 30.35"   Gusts: NA
Location:  35.6015°N, 80.0858°W
Report Text: KHBI 290415Z AUTO 00000KT 10SM CLR M03/M08 A3035 RMK AO2 T10281081
Loading
Personal Weather Stations






























Interactive Weather Map New forecast layout! Learn more

10-Day Weather Forecast

Advertisements
Track Severe Weather on mobile